Terminal Aerodrome Forecast
Issued by NWS

Home | Current Version | Previous Version | Text Only | Print | Product List | Glossary Off
Versions: 1 2 3 4 5 6 7 8 9 10 11 12 13 14 15 16

000
FTUS43 KICT 191355 AAA
TAFRSL
TAF AMD
KRSL 191355Z 1914/2012 35022G26KT P6SM OVC007
     FM191600 34017G22KT P6SM OVC012
     FM191800 34013KT P6SM OVC022
     FM192000 01007KT P6SM OVC025=

USA.gov is the U.S. government's official web portal to all federal, state and local government web resources and services.